Egg Harbor Township, NJ

2:56 PM EDT on September 02, 2014 (GMT -0400)
Miller | Change Station
CLOSE
Current Station
Airport
Location: Toms River,
Elevation: 82 ft
Nearby Weather Stations
Active Advisory: Air Quality Alert

Elev 82 ft 39.93 °N, 74.29 °W | Updated 21 minutes ago

Scattered Clouds
Scattered Clouds
91 °F
Feels Like 98 °F
N
9
Wind Variable Wind from WSW

Today
High -- | Low -- °F
--% Chance of Precip.
Yesterday
High -- | Low -- °F
Precip. -- in
6:27 AM 7:27 PM
First Quarter, 54% visible
Pressure 29.89 in
Visibility 10.0 miles
Clouds Few 4200 ft
Scattered Clouds 5000 ft
Heat Index 98 °F
Dew Point 72 °F
Humidity 52%
Rainfall 0.00 in
Snow Depth Not available.
UV 6 out of 12
Pollen 8.90 out of 12
Ozone Good
PM2.5 Moderate
Flu Activity Not available.
METAR KMJX 021835Z AUTO 24008KT 10SM FEW042 SCT050 33/22 A2989 RMK AO1

More Conditions Fewer Conditions

Pressure 29.89 in
Visibility 10.0 miles
Clouds Few 4200 ft
Scattered Clouds 5000 ft
Heat Index 98 °F
Dew Point 72 °F
Humidity 52%
Rainfall 0.00 in
Snow Depth Not available.
UV 6 out of 12
Pollen 8.90 out of 12
Ozone Good
PM2.5 Moderate
Flu Activity Not available.
METAR KMJX 021835Z AUTO 24008KT 10SM FEW042 SCT050 33/22 A2989 RMK AO1

More Conditions Fewer Conditions

10-Day Weather Forecast

Almanac

Astronomy

Sep. 02, 2014 Rise Set
Actual Time 6:27 AM EDT 7:27 PM EDT
Civil Twilight 6:00 AM EDT 7:55 PM EDT
Nautical Twilight 5:27 AM EDT 8:27 PM EDT
Astronomical Twilight 4:53 AM EDT 9:01 PM EDT
Moon 2:07 PM EDT No Moon Set
Length of Visible Light 13h 54m
Length of Day
13h 00m
Tomorrow will be 2m 29s shorter.
First Quarter, 54% of the Moon is Illuminated
Today
First Quarter
Sep 8
Full
Sep 15
Last Quarter
Sep 24
New
Oct 1
First Quarter

Today's Extremes

State Highs State Lows

Community

WunderPhotos

Upload Photos

1,749,743 photos uploaded!

WunderBlogs® & News

By Dr. Jeff Masters
Director of Meteorology, Weather Underground
By Kari Strenfel
Meteorologist, Weather Underground
By Christopher C. Burt
Weather Historian, Weather Underground
September 2, 2014
September 2, 2014
September 2, 2014

Nearby

Air Quality

  Air Quality AQ Index Pollutant
Yesterday Good
PM2.5
Yesterday Good
OZONE
Current Moderate
PM2.5
Current Good
OZONE
Tuesday Moderate
OZONE
Tuesday Moderate
PM2.5
Wednesday Moderate
OZONE
Wednesday Good
PM2.5
Thursday Moderate
OZONE
Thursday Moderate
PM2.5
Friday Moderate
OZONE
Friday Moderate
PM2.5

Snow Depth

Station Depth Elevation
No new snow has been reported.

Earthquake Activity

City Distance Mag. Time & Date
No recent earthquake activity has been reported nearby.
Minimum magnitude displayed is 2.5.

Coastal Water Temperatures

Place Temperature
Atlantic City, NJ 78.1 °F

Nearby Weather Stations